sensor_id;sensor_type;location;lat;lon;timestamp;P1;durP1;ratioP1;P2;durP2;ratioP2
44102;SDS011;29769;42.178;24.742;2023-03-03T00:02:34;56.63;;;26.05;;
44102;SDS011;29769;42.178;24.742;2023-03-03T00:05:19;56.60;;;25.27;;
44102;SDS011;29769;42.178;24.742;2023-03-03T00:08:04;51.25;;;24.00;;
44102;SDS011;29769;42.178;24.742;2023-03-03T00:10:49;52.90;;;23.35;;
44102;SDS011;29769;42.178;24.742;2023-03-03T00:13:44;48.78;;;25.77;;
44102;SDS011;29769;42.178;24.742;2023-03-03T00:16:34;52.80;;;24.42;;
44102;SDS011;29769;42.178;24.742;2023-03-03T00:19:21;54.90;;;25.23;;
44102;SDS011;29769;42.178;24.742;2023-03-03T00:25:33;49.70;;;22.17;;
44102;SDS011;29769;42.178;24.742;2023-03-03T00:31:13;57.95;;;24.95;;
44102;SDS011;29769;42.178;24.742;2023-03-03T00:37:00;54.55;;;24.98;;
44102;SDS011;29769;42.178;24.742;2023-03-03T00:39:45;46.88;;;25.58;;
44102;SDS011;29769;42.178;24.742;2023-03-03T00:42:30;57.90;;;26.45;;
44102;SDS011;29769;42.178;24.742;2023-03-03T00:48:56;59.42;;;26.02;;
44102;SDS011;29769;42.178;24.742;2023-03-03T00:51:34;53.25;;;27.48;;
44102;SDS011;29769;42.178;24.742;2023-03-03T00:54:19;60.67;;;26.40;;
44102;SDS011;29769;42.178;24.742;2023-03-03T00:57:04;57.83;;;27.17;;
44102;SDS011;29769;42.178;24.742;2023-03-03T00:59:49;57.65;;;28.02;;
44102;SDS011;29769;42.178;24.742;2023-03-03T01:02:34;59.20;;;29.15;;
44102;SDS011;29769;42.178;24.742;2023-03-03T01:05:19;54.58;;;27.15;;
44102;SDS011;29769;42.178;24.742;2023-03-03T01:08:05;64.03;;;27.88;;
44102;SDS011;29769;42.178;24.742;2023-03-03T01:10:51;67.20;;;28.23;;
44102;SDS011;29769;42.178;24.742;2023-03-03T01:13:39;60.50;;;29.30;;
44102;SDS011;29769;42.178;24.742;2023-03-03T01:16:27;58.53;;;29.63;;
44102;SDS011;29769;42.178;24.742;2023-03-03T01:19:12;54.20;;;29.27;;
44102;SDS011;29769;42.178;24.742;2023-03-03T01:21:57;65.63;;;30.50;;
44102;SDS011;29769;42.178;24.742;2023-03-03T01:24:42;65.65;;;30.27;;
44102;SDS011;29769;42.178;24.742;2023-03-03T01:27:29;66.30;;;30.55;;
44102;SDS011;29769;42.178;24.742;2023-03-03T01:30:14;62.67;;;30.15;;
44102;SDS011;29769;42.178;24.742;2023-03-03T01:32:59;67.15;;;29.63;;
44102;SDS011;29769;42.178;24.742;2023-03-03T01:35:45;74.53;;;33.72;;
44102;SDS011;29769;42.178;24.742;2023-03-03T01:38:30;65.10;;;30.42;;
44102;SDS011;29769;42.178;24.742;2023-03-03T01:41:18;65.70;;;31.33;;
44102;SDS011;29769;42.178;24.742;2023-03-03T01:46:55;56.53;;;27.80;;
44102;SDS011;29769;42.178;24.742;2023-03-03T01:50:04;58.75;;;28.55;;
44102;SDS011;29769;42.178;24.742;2023-03-03T01:52:54;62.60;;;29.45;;
44102;SDS011;29769;42.178;24.742;2023-03-03T01:55:40;61.97;;;28.15;;
44102;SDS011;29769;42.178;24.742;2023-03-03T01:58:27;56.28;;;29.52;;
44102;SDS011;29769;42.178;24.742;2023-03-03T02:01:16;63.17;;;30.65;;
44102;SDS011;29769;42.178;24.742;2023-03-03T02:04:04;63.28;;;30.27;;
44102;SDS011;29769;42.178;24.742;2023-03-03T02:06:50;62.80;;;29.48;;
44102;SDS011;29769;42.178;24.742;2023-03-03T02:09:54;64.32;;;30.13;;
44102;SDS011;29769;42.178;24.742;2023-03-03T02:12:50;54.88;;;29.42;;
44102;SDS011;29769;42.178;24.742;2023-03-03T02:15:37;61.33;;;30.85;;
44102;SDS011;29769;42.178;24.742;2023-03-03T02:18:22;79.43;;;33.58;;
44102;SDS011;29769;42.178;24.742;2023-03-03T02:21:11;61.47;;;31.00;;
44102;SDS011;29769;42.178;24.742;2023-03-03T02:24:05;66.38;;;29.95;;
44102;SDS011;29769;42.178;24.742;2023-03-03T02:26:52;65.20;;;32.00;;
44102;SDS011;29769;42.178;24.742;2023-03-03T02:29:37;65.28;;;30.70;;
44102;SDS011;29769;42.178;24.742;2023-03-03T02:32:24;68.47;;;31.25;;
44102;SDS011;29769;42.178;24.742;2023-03-03T02:38:38;49.83;;;23.08;;
44102;SDS011;29769;42.178;24.742;2023-03-03T02:44:29;68.85;;;33.15;;
44102;SDS011;29769;42.178;24.742;2023-03-03T02:47:16;71.13;;;31.83;;
44102;SDS011;29769;42.178;24.742;2023-03-03T02:50:01;59.78;;;29.98;;
44102;SDS011;29769;42.178;24.742;2023-03-03T02:52:46;65.38;;;30.02;;
44102;SDS011;29769;42.178;24.742;2023-03-03T02:58:15;55.63;;;29.05;;
44102;SDS011;29769;42.178;24.742;2023-03-03T03:03:45;58.50;;;28.55;;
44102;SDS011;29769;42.178;24.742;2023-03-03T03:06:33;60.60;;;29.17;;
44102;SDS011;29769;42.178;24.742;2023-03-03T03:09:19;63.08;;;28.70;;
44102;SDS011;29769;42.178;24.742;2023-03-03T03:12:08;60.05;;;30.60;;
44102;SDS011;29769;42.178;24.742;2023-03-03T03:14:53;61.83;;;29.35;;
44102;SDS011;29769;42.178;24.742;2023-03-03T03:17:37;60.40;;;28.85;;
44102;SDS011;29769;42.178;24.742;2023-03-03T03:20:24;62.53;;;28.23;;
44102;SDS011;29769;42.178;24.742;2023-03-03T03:23:09;60.60;;;29.20;;
44102;SDS011;29769;42.178;24.742;2023-03-03T03:25:54;58.55;;;28.13;;
44102;SDS011;29769;42.178;24.742;2023-03-03T03:28:43;64.03;;;29.83;;
44102;SDS011;29769;42.178;24.742;2023-03-03T03:31:28;59.28;;;28.58;;
44102;SDS011;29769;42.178;24.742;2023-03-03T03:34:13;67.07;;;29.48;;
44102;SDS011;29769;42.178;24.742;2023-03-03T03:36:58;54.50;;;29.73;;
44102;SDS011;29769;42.178;24.742;2023-03-03T03:39:45;58.70;;;28.98;;
44102;SDS011;29769;42.178;24.742;2023-03-03T03:42:30;61.30;;;29.48;;
44102;SDS011;29769;42.178;24.742;2023-03-03T03:45:15;58.70;;;28.13;;
44102;SDS011;29769;42.178;24.742;2023-03-03T03:48:04;55.58;;;27.73;;
44102;SDS011;29769;42.178;24.742;2023-03-03T03:50:49;58.50;;;28.63;;
44102;SDS011;29769;42.178;24.742;2023-03-03T03:56:19;58.80;;;28.38;;
44102;SDS011;29769;42.178;24.742;2023-03-03T03:59:08;70.28;;;28.35;;
44102;SDS011;29769;42.178;24.742;2023-03-03T04:01:54;58.47;;;28.70;;
44102;SDS011;29769;42.178;24.742;2023-03-03T04:04:40;68.85;;;28.92;;
44102;SDS011;29769;42.178;24.742;2023-03-03T04:07:25;68.40;;;27.60;;
44102;SDS011;29769;42.178;24.742;2023-03-03T04:10:10;58.75;;;27.98;;
44102;SDS011;29769;42.178;24.742;2023-03-03T04:12:56;66.40;;;29.25;;
44102;SDS011;29769;42.178;24.742;2023-03-03T04:15:42;57.15;;;30.08;;
44102;SDS011;29769;42.178;24.742;2023-03-03T04:18:27;64.00;;;28.33;;
44102;SDS011;29769;42.178;24.742;2023-03-03T04:21:13;56.58;;;29.92;;
44102;SDS011;29769;42.178;24.742;2023-03-03T04:23:58;64.68;;;30.60;;
44102;SDS011;29769;42.178;24.742;2023-03-03T04:26:45;67.05;;;31.67;;
44102;SDS011;29769;42.178;24.742;2023-03-03T04:32:14;74.35;;;34.42;;
44102;SDS011;29769;42.178;24.742;2023-03-03T04:35:03;69.13;;;33.47;;
44102;SDS011;29769;42.178;24.742;2023-03-03T04:37:48;66.22;;;32.97;;
44102;SDS011;29769;42.178;24.742;2023-03-03T04:40:34;65.78;;;31.77;;
44102;SDS011;29769;42.178;24.742;2023-03-03T04:43:19;64.90;;;31.00;;
44102;SDS011;29769;42.178;24.742;2023-03-03T04:46:05;74.35;;;32.25;;
44102;SDS011;29769;42.178;24.742;2023-03-03T04:48:51;71.75;;;32.20;;
44102;SDS011;29769;42.178;24.742;2023-03-03T04:51:36;69.30;;;30.50;;
44102;SDS011;29769;42.178;24.742;2023-03-03T04:57:07;59.58;;;29.58;;
44102;SDS011;29769;42.178;24.742;2023-03-03T04:59:53;73.30;;;30.75;;
44102;SDS011;29769;42.178;24.742;2023-03-03T05:02:38;60.53;;;28.05;;
44102;SDS011;29769;42.178;24.742;2023-03-03T05:05:24;73.68;;;32.35;;
44102;SDS011;29769;42.178;24.742;2023-03-03T05:08:09;71.05;;;30.27;;
44102;SDS011;29769;42.178;24.742;2023-03-03T05:10:54;67.03;;;29.15;;
44102;SDS011;29769;42.178;24.742;2023-03-03T05:13:39;63.25;;;28.48;;
44102;SDS011;29769;42.178;24.742;2023-03-03T05:16:23;61.28;;;28.38;;
44102;SDS011;29769;42.178;24.742;2023-03-03T05:19:08;64.93;;;28.60;;
44102;SDS011;29769;42.178;24.742;2023-03-03T05:21:53;56.60;;;27.42;;
44102;SDS011;29769;42.178;24.742;2023-03-03T05:27:23;67.07;;;29.23;;
44102;SDS011;29769;42.178;24.742;2023-03-03T05:30:08;62.78;;;27.45;;
44102;SDS011;29769;42.178;24.742;2023-03-03T05:32:54;61.83;;;27.00;;
44102;SDS011;29769;42.178;24.742;2023-03-03T05:35:39;55.78;;;27.40;;
44102;SDS011;29769;42.178;24.742;2023-03-03T05:38:24;58.90;;;27.50;;
44102;SDS011;29769;42.178;24.742;2023-03-03T05:41:09;65.82;;;28.33;;
44102;SDS011;29769;42.178;24.742;2023-03-03T05:43:54;56.15;;;27.15;;
44102;SDS011;29769;42.178;24.742;2023-03-03T05:46:39;57.78;;;25.80;;
44102;SDS011;29769;42.178;24.742;2023-03-03T05:49:26;49.15;;;25.70;;
44102;SDS011;29769;42.178;24.742;2023-03-03T05:52:11;60.00;;;27.65;;
44102;SDS011;29769;42.178;24.742;2023-03-03T05:54:55;68.35;;;29.70;;
44102;SDS011;29769;42.178;24.742;2023-03-03T05:57:40;55.92;;;25.17;;
44102;SDS011;29769;42.178;24.742;2023-03-03T06:00:25;55.47;;;25.15;;
44102;SDS011;29769;42.178;24.742;2023-03-03T06:03:10;52.33;;;23.83;;
44102;SDS011;29769;42.178;24.742;2023-03-03T06:05:55;53.03;;;24.10;;
44102;SDS011;29769;42.178;24.742;2023-03-03T06:08:40;57.50;;;22.92;;
44102;SDS011;29769;42.178;24.742;2023-03-03T06:11:25;50.63;;;25.25;;
44102;SDS011;29769;42.178;24.742;2023-03-03T06:14:09;51.13;;;23.92;;
44102;SDS011;29769;42.178;24.742;2023-03-03T06:16:54;50.17;;;24.08;;
44102;SDS011;29769;42.178;24.742;2023-03-03T06:19:41;51.50;;;22.40;;
44102;SDS011;29769;42.178;24.742;2023-03-03T06:22:26;47.00;;;23.85;;
44102;SDS011;29769;42.178;24.742;2023-03-03T06:25:11;46.08;;;23.60;;
44102;SDS011;29769;42.178;24.742;2023-03-03T06:30:41;45.70;;;22.63;;
44102;SDS011;29769;42.178;24.742;2023-03-03T06:36:11;48.13;;;24.25;;
44102;SDS011;29769;42.178;24.742;2023-03-03T06:38:56;56.03;;;23.17;;
44102;SDS011;29769;42.178;24.742;2023-03-03T06:41:41;50.17;;;22.52;;
44102;SDS011;29769;42.178;24.742;2023-03-03T06:44:25;41.38;;;22.45;;
44102;SDS011;29769;42.178;24.742;2023-03-03T06:49:55;46.08;;;24.67;;
44102;SDS011;29769;42.178;24.742;2023-03-03T06:55:25;54.30;;;25.10;;
44102;SDS011;29769;42.178;24.742;2023-03-03T06:58:17;51.05;;;24.45;;
44102;SDS011;29769;42.178;24.742;2023-03-03T07:01:04;47.53;;;23.52;;
44102;SDS011;29769;42.178;24.742;2023-03-03T07:04:06;58.67;;;27.60;;
44102;SDS011;29769;42.178;24.742;2023-03-03T07:09:44;52.60;;;27.60;;
44102;SDS011;29769;42.178;24.742;2023-03-03T07:12:29;46.65;;;23.48;;
44102;SDS011;29769;42.178;24.742;2023-03-03T07:15:25;38.22;;;19.27;;
44102;SDS011;29769;42.178;24.742;2023-03-03T07:21:21;40.58;;;21.33;;
44102;SDS011;29769;42.178;24.742;2023-03-03T07:24:18;43.63;;;21.23;;
44102;SDS011;29769;42.178;24.742;2023-03-03T07:27:13;45.50;;;22.17;;
44102;SDS011;29769;42.178;24.742;2023-03-03T07:32:58;31.98;;;17.65;;
44102;SDS011;29769;42.178;24.742;2023-03-03T07:35:43;32.22;;;18.23;;
44102;SDS011;29769;42.178;24.742;2023-03-03T07:38:44;40.13;;;19.27;;
44102;SDS011;29769;42.178;24.742;2023-03-03T07:41:37;29.85;;;17.83;;
44102;SDS011;29769;42.178;24.742;2023-03-03T07:44:25;34.88;;;19.20;;
44102;SDS011;29769;42.178;24.742;2023-03-03T07:47:22;26.52;;;15.35;;
44102;SDS011;29769;42.178;24.742;2023-03-03T07:50:28;37.38;;;18.73;;
44102;SDS011;29769;42.178;24.742;2023-03-03T07:53:28;31.27;;;15.07;;
44102;SDS011;29769;42.178;24.742;2023-03-03T07:56:26;30.35;;;14.55;;
44102;SDS011;29769;42.178;24.742;2023-03-03T07:59:20;31.38;;;15.93;;
44102;SDS011;29769;42.178;24.742;2023-03-03T08:02:54;25.40;;;15.95;;
44102;SDS011;29769;42.178;24.742;2023-03-03T08:08:14;31.40;;;17.63;;
44102;SDS011;29769;42.178;24.742;2023-03-03T08:11:08;42.60;;;18.75;;
44102;SDS011;29769;42.178;24.742;2023-03-03T08:13:53;30.60;;;17.50;;
44102;SDS011;29769;42.178;24.742;2023-03-03T08:16:39;35.47;;;17.48;;
44102;SDS011;29769;42.178;24.742;2023-03-03T08:19:25;37.80;;;18.30;;
44102;SDS011;29769;42.178;24.742;2023-03-03T08:22:12;38.88;;;20.02;;
44102;SDS011;29769;42.178;24.742;2023-03-03T08:25:00;34.72;;;19.45;;
44102;SDS011;29769;42.178;24.742;2023-03-03T08:27:45;36.15;;;19.95;;
44102;SDS011;29769;42.178;24.742;2023-03-03T08:30:30;43.00;;;19.85;;
44102;SDS011;29769;42.178;24.742;2023-03-03T08:36:01;39.53;;;20.23;;
44102;SDS011;29769;42.178;24.742;2023-03-03T08:38:45;36.15;;;19.67;;
44102;SDS011;29769;42.178;24.742;2023-03-03T08:41:30;36.50;;;20.88;;
44102;SDS011;29769;42.178;24.742;2023-03-03T08:44:15;40.58;;;20.33;;
44102;SDS011;29769;42.178;24.742;2023-03-03T08:49:45;35.90;;;20.95;;
44102;SDS011;29769;42.178;24.742;2023-03-03T08:52:30;43.83;;;20.20;;
44102;SDS011;29769;42.178;24.742;2023-03-03T08:55:15;43.92;;;22.90;;
44102;SDS011;29769;42.178;24.742;2023-03-03T08:58:00;37.60;;;21.48;;
44102;SDS011;29769;42.178;24.742;2023-03-03T09:00:45;40.15;;;21.98;;
44102;SDS011;29769;42.178;24.742;2023-03-03T09:03:30;41.20;;;22.05;;
44102;SDS011;29769;42.178;24.742;2023-03-03T09:06:15;42.00;;;20.08;;
44102;SDS011;29769;42.178;24.742;2023-03-03T09:08:59;41.53;;;21.15;;
44102;SDS011;29769;42.178;24.742;2023-03-03T09:14:30;38.13;;;21.70;;
44102;SDS011;29769;42.178;24.742;2023-03-03T09:17:32;44.72;;;23.13;;
44102;SDS011;29769;42.178;24.742;2023-03-03T09:29:29;46.85;;;22.48;;
44102;SDS011;29769;42.178;24.742;2023-03-03T09:32:26;45.00;;;24.33;;
44102;SDS011;29769;42.178;24.742;2023-03-03T09:38:25;46.40;;;23.63;;
44102;SDS011;29769;42.178;24.742;2023-03-03T09:41:28;37.67;;;22.05;;
44102;SDS011;29769;42.178;24.742;2023-03-03T09:50:25;41.15;;;23.52;;
44102;SDS011;29769;42.178;24.742;2023-03-03T10:05:19;38.78;;;20.83;;
44102;SDS011;29769;42.178;24.742;2023-03-03T10:08:36;37.88;;;21.30;;
44102;SDS011;29769;42.178;24.742;2023-03-03T10:11:53;35.92;;;20.67;;
44102;SDS011;29769;42.178;24.742;2023-03-03T10:18:41;34.00;;;20.38;;
44102;SDS011;29769;42.178;24.742;2023-03-03T10:21:35;30.33;;;18.60;;
44102;SDS011;29769;42.178;24.742;2023-03-03T10:24:30;39.00;;;20.38;;
44102;SDS011;29769;42.178;24.742;2023-03-03T10:30:27;31.35;;;19.05;;
44102;SDS011;29769;42.178;24.742;2023-03-03T10:36:45;37.30;;;18.05;;
44102;SDS011;29769;42.178;24.742;2023-03-03T10:54:17;30.10;;;18.58;;
44102;SDS011;29769;42.178;24.742;2023-03-03T11:09:16;32.22;;;18.20;;
44102;SDS011;29769;42.178;24.742;2023-03-03T11:36:42;30.40;;;18.90;;
44102;SDS011;29769;42.178;24.742;2023-03-03T11:39:23;29.63;;;18.45;;
44102;SDS011;29769;42.178;24.742;2023-03-03T11:42:18;30.35;;;17.10;;
44102;SDS011;29769;42.178;24.742;2023-03-03T11:45:16;31.73;;;17.08;;
44102;SDS011;29769;42.178;24.742;2023-03-03T11:57:19;33.88;;;17.38;;
44102;SDS011;29769;42.178;24.742;2023-03-03T12:00:15;32.30;;;17.38;;
44102;SDS011;29769;42.178;24.742;2023-03-03T12:06:38;31.92;;;16.48;;
44102;SDS011;29769;42.178;24.742;2023-03-03T12:09:42;33.28;;;17.42;;
44102;SDS011;29769;42.178;24.742;2023-03-03T12:12:42;38.05;;;17.15;;
44102;SDS011;29769;42.178;24.742;2023-03-03T12:18:50;33.20;;;16.75;;
44102;SDS011;29769;42.178;24.742;2023-03-03T12:21:45;31.55;;;17.20;;
44102;SDS011;29769;42.178;24.742;2023-03-03T12:24:46;27.98;;;16.85;;
44102;SDS011;29769;42.178;24.742;2023-03-03T12:27:53;44.67;;;16.63;;
44102;SDS011;29769;42.178;24.742;2023-03-03T12:39:40;31.48;;;17.15;;
44102;SDS011;29769;42.178;24.742;2023-03-03T12:45:53;24.70;;;14.63;;
44102;SDS011;29769;42.178;24.742;2023-03-03T12:48:46;21.30;;;13.15;;
44102;SDS011;29769;42.178;24.742;2023-03-03T12:51:48;34.03;;;14.57;;
44102;SDS011;29769;42.178;24.742;2023-03-03T13:07:24;28.70;;;15.68;;
44102;SDS011;29769;42.178;24.742;2023-03-03T13:10:22;26.85;;;15.50;;
44102;SDS011;29769;42.178;24.742;2023-03-03T13:13:35;25.80;;;13.35;;
44102;SDS011;29769;42.178;24.742;2023-03-03T13:16:31;29.67;;;13.13;;
44102;SDS011;29769;42.178;24.742;2023-03-03T13:19:22;38.92;;;13.57;;
44102;SDS011;29769;42.178;24.742;2023-03-03T13:22:15;23.65;;;12.50;;
44102;SDS011;29769;42.178;24.742;2023-03-03T13:28:32;28.30;;;14.50;;
44102;SDS011;29769;42.178;24.742;2023-03-03T13:37:31;37.63;;;14.52;;
44102;SDS011;29769;42.178;24.742;2023-03-03T13:40:23;45.42;;;16.33;;
44102;SDS011;29769;42.178;24.742;2023-03-03T13:43:18;40.88;;;13.60;;
44102;SDS011;29769;42.178;24.742;2023-03-03T13:49:13;31.42;;;13.88;;
44102;SDS011;29769;42.178;24.742;2023-03-03T13:52:10;21.17;;;12.98;;
44102;SDS011;29769;42.178;24.742;2023-03-03T14:01:10;35.00;;;14.30;;
44102;SDS011;29769;42.178;24.742;2023-03-03T14:04:07;21.23;;;11.02;;
44102;SDS011;29769;42.178;24.742;2023-03-03T14:07:11;21.50;;;11.70;;
44102;SDS011;29769;42.178;24.742;2023-03-03T14:10:07;39.90;;;14.73;;
44102;SDS011;29769;42.178;24.742;2023-03-03T14:13:13;15.85;;;9.88;;
44102;SDS011;29769;42.178;24.742;2023-03-03T14:16:06;14.18;;;9.05;;
44102;SDS011;29769;42.178;24.742;2023-03-03T14:19:00;19.45;;;9.25;;
44102;SDS011;29769;42.178;24.742;2023-03-03T14:27:59;15.95;;;9.23;;
44102;SDS011;29769;42.178;24.742;2023-03-03T14:31:14;14.18;;;10.02;;
44102;SDS011;29769;42.178;24.742;2023-03-03T14:36:57;11.50;;;8.90;;
44102;SDS011;29769;42.178;24.742;2023-03-03T14:43:01;14.13;;;8.35;;
44102;SDS011;29769;42.178;24.742;2023-03-03T14:46:59;20.45;;;9.30;;
44102;SDS011;29769;42.178;24.742;2023-03-03T14:49:54;19.70;;;10.55;;
44102;SDS011;29769;42.178;24.742;2023-03-03T14:52:28;21.20;;;11.23;;
44102;SDS011;29769;42.178;24.742;2023-03-03T14:55:30;16.15;;;9.90;;
44102;SDS011;29769;42.178;24.742;2023-03-03T15:07:13;14.35;;;9.65;;
44102;SDS011;29769;42.178;24.742;2023-03-03T15:10:11;14.88;;;9.10;;
44102;SDS011;29769;42.178;24.742;2023-03-03T15:12:57;23.30;;;10.25;;
44102;SDS011;29769;42.178;24.742;2023-03-03T15:15:48;17.00;;;12.02;;
44102;SDS011;29769;42.178;24.742;2023-03-03T15:19:27;15.65;;;9.32;;
44102;SDS011;29769;42.178;24.742;2023-03-03T15:27:47;13.60;;;9.80;;
44102;SDS011;29769;42.178;24.742;2023-03-03T15:30:57;12.93;;;9.73;;
44102;SDS011;29769;42.178;24.742;2023-03-03T15:34:03;15.05;;;10.07;;
44102;SDS011;29769;42.178;24.742;2023-03-03T15:36:55;20.13;;;10.35;;
44102;SDS011;29769;42.178;24.742;2023-03-03T15:51:34;19.85;;;12.40;;
44102;SDS011;29769;42.178;24.742;2023-03-03T15:54:37;38.10;;;13.20;;
44102;SDS011;29769;42.178;24.742;2023-03-03T15:57:36;20.55;;;12.70;;
44102;SDS011;29769;42.178;24.742;2023-03-03T16:03:35;20.40;;;12.95;;
44102;SDS011;29769;42.178;24.742;2023-03-03T16:06:37;27.90;;;13.60;;
44102;SDS011;29769;42.178;24.742;2023-03-03T16:09:36;27.85;;;13.73;;
44102;SDS011;29769;42.178;24.742;2023-03-03T16:34:00;24.45;;;15.05;;
44102;SDS011;29769;42.178;24.742;2023-03-03T16:43:09;18.52;;;12.27;;
44102;SDS011;29769;42.178;24.742;2023-03-03T16:49:18;32.27;;;18.93;;
44102;SDS011;29769;42.178;24.742;2023-03-03T16:52:13;37.72;;;17.85;;
44102;SDS011;29769;42.178;24.742;2023-03-03T17:19:54;58.97;;;29.77;;
44102;SDS011;29769;42.178;24.742;2023-03-03T17:41:20;53.58;;;31.80;;
44102;SDS011;29769;42.178;24.742;2023-03-03T18:20:55;76.68;;;39.53;;
44102;SDS011;29769;42.178;24.742;2023-03-03T18:23:43;68.75;;;40.20;;
44102;SDS011;29769;42.178;24.742;2023-03-03T18:26:41;102.32;;;51.80;;
44102;SDS011;29769;42.178;24.742;2023-03-03T18:29:27;79.82;;;39.22;;
44102;SDS011;29769;42.178;24.742;2023-03-03T18:32:16;77.07;;;39.10;;
44102;SDS011;29769;42.178;24.742;2023-03-03T18:38:23;69.38;;;36.67;;
44102;SDS011;29769;42.178;24.742;2023-03-03T18:41:24;64.05;;;31.75;;
44102;SDS011;29769;42.178;24.742;2023-03-03T18:44:27;77.82;;;43.67;;
44102;SDS011;29769;42.178;24.742;2023-03-03T18:47:13;71.43;;;42.08;;
44102;SDS011;29769;42.178;24.742;2023-03-03T18:50:04;66.65;;;36.38;;
44102;SDS011;29769;42.178;24.742;2023-03-03T18:55:56;73.15;;;34.30;;
44102;SDS011;29769;42.178;24.742;2023-03-03T18:58:43;62.30;;;30.20;;
44102;SDS011;29769;42.178;24.742;2023-03-03T19:04:16;73.38;;;37.75;;
44102;SDS011;29769;42.178;24.742;2023-03-03T19:09:55;69.38;;;35.20;;
44102;SDS011;29769;42.178;24.742;2023-03-03T19:12:52;78.15;;;41.45;;
44102;SDS011;29769;42.178;24.742;2023-03-03T19:15:43;81.18;;;41.90;;
44102;SDS011;29769;42.178;24.742;2023-03-03T19:18:32;81.43;;;42.90;;
44102;SDS011;29769;42.178;24.742;2023-03-03T19:21:28;102.40;;;46.67;;
44102;SDS011;29769;42.178;24.742;2023-03-03T19:24:30;178.82;;;75.60;;
44102;SDS011;29769;42.178;24.742;2023-03-03T19:27:24;102.53;;;47.38;;
44102;SDS011;29769;42.178;24.742;2023-03-03T19:42:25;109.40;;;50.00;;
44102;SDS011;29769;42.178;24.742;2023-03-03T19:54:16;90.22;;;43.55;;
44102;SDS011;29769;42.178;24.742;2023-03-03T20:03:29;99.55;;;45.90;;
44102;SDS011;29769;42.178;24.742;2023-03-03T20:06:38;190.63;;;54.97;;
44102;SDS011;29769;42.178;24.742;2023-03-03T20:15:20;104.25;;;52.20;;
44102;SDS011;29769;42.178;24.742;2023-03-03T20:21:33;98.40;;;49.35;;
44102;SDS011;29769;42.178;24.742;2023-03-03T20:40:21;154.55;;;81.22;;
44102;SDS011;29769;42.178;24.742;2023-03-03T20:44:10;147.07;;;63.25;;
44102;SDS011;29769;42.178;24.742;2023-03-03T21:01:34;103.25;;;44.50;;
44102;SDS011;29769;42.178;24.742;2023-03-03T21:04:27;86.32;;;43.35;;
44102;SDS011;29769;42.178;24.742;2023-03-03T21:07:23;93.70;;;42.35;;
44102;SDS011;29769;42.178;24.742;2023-03-03T21:12:57;87.15;;;43.00;;
44102;SDS011;29769;42.178;24.742;2023-03-03T21:22:08;202.35;;;85.30;;
44102;SDS011;29769;42.178;24.742;2023-03-03T21:24:54;117.60;;;54.47;;
44102;SDS011;29769;42.178;24.742;2023-03-03T21:27:43;164.63;;;69.20;;
44102;SDS011;29769;42.178;24.742;2023-03-03T21:30:28;141.85;;;63.25;;
44102;SDS011;29769;42.178;24.742;2023-03-03T21:33:37;122.43;;;55.65;;
44102;SDS011;29769;42.178;24.742;2023-03-03T21:39:34;108.80;;;49.83;;
44102;SDS011;29769;42.178;24.742;2023-03-03T21:42:28;113.97;;;54.05;;
44102;SDS011;29769;42.178;24.742;2023-03-03T21:45:24;103.18;;;47.92;;
44102;SDS011;29769;42.178;24.742;2023-03-03T21:48:09;93.43;;;44.97;;
44102;SDS011;29769;42.178;24.742;2023-03-03T21:50:54;98.10;;;46.85;;
44102;SDS011;29769;42.178;24.742;2023-03-03T21:53:42;97.45;;;45.70;;
44102;SDS011;29769;42.178;24.742;2023-03-03T21:56:28;106.50;;;43.20;;
44102;SDS011;29769;42.178;24.742;2023-03-03T21:59:12;85.97;;;41.33;;
44102;SDS011;29769;42.178;24.742;2023-03-03T22:01:57;87.68;;;42.15;;
44102;SDS011;29769;42.178;24.742;2023-03-03T22:04:42;95.22;;;44.97;;
44102;SDS011;29769;42.178;24.742;2023-03-03T22:07:27;104.28;;;48.63;;
44102;SDS011;29769;42.178;24.742;2023-03-03T22:12:57;142.73;;;63.22;;
44102;SDS011;29769;42.178;24.742;2023-03-03T22:15:42;137.15;;;63.53;;
44102;SDS011;29769;42.178;24.742;2023-03-03T22:18:27;129.38;;;60.63;;
44102;SDS011;29769;42.178;24.742;2023-03-03T22:21:11;138.80;;;65.18;;
44102;SDS011;29769;42.178;24.742;2023-03-03T22:23:57;114.88;;;51.00;;
44102;SDS011;29769;42.178;24.742;2023-03-03T22:26:42;127.30;;;57.80;;
44102;SDS011;29769;42.178;24.742;2023-03-03T22:32:12;127.82;;;60.13;;
44102;SDS011;29769;42.178;24.742;2023-03-03T22:34:56;114.72;;;54.97;;
44102;SDS011;29769;42.178;24.742;2023-03-03T22:37:41;121.78;;;56.28;;
44102;SDS011;29769;42.178;24.742;2023-03-03T22:40:26;113.07;;;52.03;;
44102;SDS011;29769;42.178;24.742;2023-03-03T22:43:11;111.22;;;52.20;;
44102;SDS011;29769;42.178;24.742;2023-03-03T22:45:58;113.63;;;54.42;;
44102;SDS011;29769;42.178;24.742;2023-03-03T22:48:43;125.20;;;55.50;;
44102;SDS011;29769;42.178;24.742;2023-03-03T22:51:28;132.57;;;58.05;;
44102;SDS011;29769;42.178;24.742;2023-03-03T22:54:13;141.43;;;60.67;;
44102;SDS011;29769;42.178;24.742;2023-03-03T22:56:58;137.75;;;62.00;;
44102;SDS011;29769;42.178;24.742;2023-03-03T22:59:43;120.53;;;57.20;;
44102;SDS011;29769;42.178;24.742;2023-03-03T23:02:28;128.13;;;58.28;;
44102;SDS011;29769;42.178;24.742;2023-03-03T23:07:57;143.63;;;64.07;;
44102;SDS011;29769;42.178;24.742;2023-03-03T23:10:42;140.50;;;65.38;;
44102;SDS011;29769;42.178;24.742;2023-03-03T23:13:27;133.95;;;61.05;;
44102;SDS011;29769;42.178;24.742;2023-03-03T23:16:12;144.85;;;65.38;;
44102;SDS011;29769;42.178;24.742;2023-03-03T23:18:57;143.43;;;65.47;;
44102;SDS011;29769;42.178;24.742;2023-03-03T23:21:42;149.48;;;66.80;;
44102;SDS011;29769;42.178;24.742;2023-03-03T23:24:26;145.73;;;64.75;;
44102;SDS011;29769;42.178;24.742;2023-03-03T23:27:11;139.52;;;61.10;;
44102;SDS011;29769;42.178;24.742;2023-03-03T23:29:56;213.07;;;104.63;;
44102;SDS011;29769;42.178;24.742;2023-03-03T23:32:41;151.70;;;73.88;;
44102;SDS011;29769;42.178;24.742;2023-03-03T23:35:26;129.77;;;62.85;;
44102;SDS011;29769;42.178;24.742;2023-03-03T23:38:11;135.52;;;65.60;;
44102;SDS011;29769;42.178;24.742;2023-03-03T23:40:58;118.50;;;57.25;;
44102;SDS011;29769;42.178;24.742;2023-03-03T23:43:43;140.82;;;62.35;;
44102;SDS011;29769;42.178;24.742;2023-03-03T23:46:28;122.47;;;58.15;;
44102;SDS011;29769;42.178;24.742;2023-03-03T23:49:12;123.47;;;59.47;;
44102;SDS011;29769;42.178;24.742;2023-03-03T23:51:57;120.68;;;56.97;;
44102;SDS011;29769;42.178;24.742;2023-03-03T23:54:43;115.32;;;55.08;;
44102;SDS011;29769;42.178;24.742;2023-03-03T23:57:28;109.63;;;54.20;;
